createdAt,value
2018-11-12T00:01:28.431Z,-21316.79
2018-11-12T00:03:56.776Z,-21320.32
2018-11-12T00:06:25.111Z,-21312.98
2018-11-12T00:08:53.425Z,-21311.14
2018-11-12T00:11:21.812Z,-21322.72
2018-11-12T00:13:50.183Z,-21317.64
2018-11-12T00:16:18.528Z,-21306.20
2018-11-12T00:18:46.856Z,-21314.39
2018-11-12T00:21:15.129Z,-21318.49
2018-11-12T00:23:43.537Z,-21310.01
2018-11-12T00:26:11.835Z,-21310.30
2018-11-12T00:28:40.122Z,-21314.67
2018-11-12T00:31:08.417Z,-21311.71
2018-11-12T00:33:36.679Z,-21309.59
2018-11-12T00:36:05.056Z,-21316.50
2018-11-12T00:38:33.379Z,-21320.32
2018-11-12T00:41:02.851Z,-21317.50
2018-11-12T00:43:31.161Z,-21315.38
2018-11-12T00:45:59.458Z,-21314.67
2018-11-12T00:48:27.929Z,-21324.83
2018-11-12T00:50:56.335Z,-21323.85
2018-11-12T00:53:24.775Z,-21318.35
2018-11-12T00:55:53.126Z,-21321.59
2018-11-12T00:58:21.492Z,-21325.82
2018-11-12T01:00:49.849Z,-21314.67
2018-11-12T01:03:18.170Z,-21326.25
2018-11-12T01:05:46.504Z,-21329.49
2018-11-12T01:08:14.787Z,-21328.08
2018-11-12T01:10:43.128Z,-21329.77
2018-11-12T01:13:11.521Z,-21324.55
2018-11-12T01:15:39.865Z,-21323.99
2018-11-12T01:18:08.190Z,-21327.66
2018-11-12T01:20:36.581Z,-21323.00
2018-11-12T01:23:05.267Z,-21314.81
2018-11-12T01:25:34.156Z,-21319.05
2018-11-12T01:28:02.554Z,-21322.29
2018-11-12T01:30:30.849Z,-21325.26
2018-11-12T01:32:59.211Z,-21315.09
2018-11-12T01:35:28.027Z,-21319.90
2018-11-12T01:37:56.488Z,-21324.13
2018-11-12T01:40:24.849Z,-21317.92
2018-11-12T01:42:53.274Z,-21310.30
2018-11-12T01:45:21.658Z,-21312.13
2018-11-12T01:47:50.811Z,-21307.89
2018-11-12T01:50:19.787Z,-21303.38
2018-11-12T01:52:48.853Z,-21317.36
2018-11-12T01:55:18.306Z,-21304.93
2018-11-12T01:57:46.817Z,-21317.92
2018-11-12T02:00:17.341Z,-21321.30
2018-11-12T02:02:47.877Z,-21309.45
2018-11-12T02:05:16.529Z,-21300.69
2018-11-12T02:07:44.905Z,-21302.95
2018-11-12T02:10:14.309Z,-21312.69
2018-11-12T02:12:42.935Z,-21316.37
2018-11-12T02:15:15.366Z,-21320.74
2018-11-12T02:17:44.833Z,-21321.17
2018-11-12T02:20:14.275Z,-21304.65
2018-11-12T02:22:43.575Z,-21305.78
2018-11-12T02:25:12.574Z,-21304.93
2018-11-12T02:27:41.358Z,-21310.72
2018-11-12T02:30:22.600Z,-21301.12
2018-11-12T02:32:50.928Z,-21297.30
2018-11-12T02:35:19.339Z,-21297.73
2018-11-12T02:37:47.742Z,-21305.07
2018-11-12T02:40:16.058Z,-21298.57
2018-11-12T02:42:44.555Z,-21297.87
2018-11-12T02:45:13.831Z,-21297.30
2018-11-12T02:47:43.135Z,-21292.36
2018-11-12T02:50:14.325Z,-21293.77
2018-11-12T02:52:42.835Z,-21290.95
2018-11-12T02:55:15.859Z,-21291.79
2018-11-12T02:57:45.072Z,-21285.71
2018-11-12T03:00:17.673Z,-21285.29
2018-11-12T03:02:46.255Z,-21288.40
2018-11-12T03:05:14.682Z,-21295.89
2018-11-12T03:07:43.449Z,-21299.99
2018-11-12T03:10:14.760Z,-21299.84
2018-11-12T03:12:43.255Z,-21300.13
2018-11-12T03:15:12.739Z,-21308.04
2018-11-12T03:17:41.780Z,-21302.53
2018-11-12T03:20:12.295Z,-21295.89
2018-11-12T03:22:40.708Z,-21291.65
2018-11-12T03:25:10.751Z,-21293.63
2018-11-12T03:27:39.501Z,-21291.93
2018-11-12T03:30:09.591Z,-21299.28
2018-11-12T03:32:38.204Z,-21302.67
2018-11-12T03:35:07.376Z,-21301.96
2018-11-12T03:37:35.816Z,-21306.63
2018-11-12T03:40:04.259Z,-21290.80
2018-11-12T03:42:32.656Z,-21287.27
2018-11-12T03:45:00.933Z,-21290.80
2018-11-12T03:47:29.229Z,-21285.99
2018-11-12T03:49:57.588Z,-21291.93
2018-11-12T03:52:25.906Z,-21291.79
2018-11-12T03:54:54.261Z,-21297.45
2018-11-12T03:57:22.624Z,-21292.21
2018-11-12T03:59:51.005Z,-21300.97
2018-11-12T04:02:19.368Z,-21305.21
2018-11-12T04:04:47.719Z,-21296.31
2018-11-12T04:07:16.078Z,-21307.89
2018-11-12T04:09:44.427Z,-21302.81
2018-11-12T04:12:12.830Z,-21300.83
2018-11-12T04:14:41.179Z,-21302.39
2018-11-12T04:17:09.552Z,-21306.05
2018-11-12T04:19:37.868Z,-21300.97
2018-11-12T04:22:06.282Z,-21295.61
2018-11-12T04:24:34.711Z,-21292.21
2018-11-12T04:27:03.170Z,-21310.86
2018-11-12T04:29:31.527Z,-21304.36
2018-11-12T04:31:59.884Z,-21305.35
2018-11-12T04:34:28.355Z,-21294.62
2018-11-12T04:36:56.868Z,-21294.62
2018-11-12T04:39:25.150Z,-21300.27
2018-11-12T04:41:53.535Z,-21301.82
2018-11-12T04:44:22.162Z,-21303.09
2018-11-12T04:46:50.518Z,-21301.40
2018-11-12T04:49:18.847Z,-21291.51
2018-11-12T04:51:47.175Z,-21289.96
2018-11-12T04:54:15.519Z,-21305.78
2018-11-12T04:56:43.808Z,-21306.34
2018-11-12T04:59:12.218Z,-21306.63
2018-11-12T05:01:40.533Z,-21305.21
2018-11-12T05:04:08.829Z,-21297.45
2018-11-12T05:06:37.184Z,-21305.07
2018-11-12T05:09:07.854Z,-21297.59
2018-11-12T05:11:36.199Z,-21300.27
2018-11-12T05:14:04.586Z,-21314.53
2018-11-12T05:16:32.962Z,-21309.45
2018-11-12T05:19:01.252Z,-21306.77
2018-11-12T05:21:29.583Z,-21299.70
2018-11-12T05:23:57.930Z,-21307.47
2018-11-12T05:26:26.243Z,-21308.32
2018-11-12T05:28:54.470Z,-21300.55
2018-11-12T05:31:22.800Z,-21290.80
2018-11-12T05:33:51.094Z,-21300.41
2018-11-12T05:36:19.364Z,-21304.65
2018-11-12T05:38:47.678Z,-21309.73
2018-11-12T05:41:16.003Z,-21311.42
2018-11-12T05:43:44.330Z,-21320.04
2018-11-12T05:46:12.680Z,-21315.38
2018-11-12T05:48:41.041Z,-21314.53
2018-11-12T05:51:09.348Z,-21311.85
2018-11-12T05:53:40.725Z,-21308.46
2018-11-12T05:56:08.984Z,-21299.84
2018-11-12T05:58:37.326Z,-21304.79
2018-11-12T06:01:05.659Z,-21299.14
2018-11-12T06:03:33.999Z,-21303.52
2018-11-12T06:06:02.325Z,-21308.04
2018-11-12T06:08:30.677Z,-21311.42
2018-11-12T06:10:58.957Z,-21309.45
2018-11-12T06:13:27.261Z,-21305.49
2018-11-12T06:15:55.621Z,-21302.81
2018-11-12T06:18:23.970Z,-21313.12
2018-11-12T06:20:52.242Z,-21313.12
2018-11-12T06:23:20.600Z,-21312.41
2018-11-12T06:25:48.909Z,-21312.41
2018-11-12T06:28:17.262Z,-21314.67
2018-11-12T06:30:45.687Z,-21317.78
2018-11-12T06:33:14.031Z,-21321.30
2018-11-12T06:35:42.375Z,-21319.05
2018-11-12T06:38:10.663Z,-21318.35
2018-11-12T06:40:39.005Z,-21325.54
2018-11-12T06:43:07.383Z,-21328.08
2018-11-12T06:45:35.615Z,-21317.64
2018-11-12T06:48:04.659Z,-21317.78
2018-11-12T06:50:33.719Z,-21309.45
2018-11-12T06:53:02.785Z,-21317.64
2018-11-12T06:55:30.936Z,-21314.53
2018-11-12T06:57:59.215Z,-21319.05
2018-11-12T07:00:32.636Z,-21322.02
2018-11-12T07:03:01.021Z,-21325.82
2018-11-12T07:05:29.956Z,-21321.17
2018-11-12T07:07:58.379Z,-21317.78
2018-11-12T07:10:27.627Z,-21310.72
2018-11-12T07:12:56.897Z,-21311.99
2018-11-12T07:15:26.440Z,-21319.48
2018-11-12T07:17:54.715Z,-21317.36
2018-11-12T07:20:24.213Z,-21326.25
2018-11-12T07:22:52.804Z,-21316.08
2018-11-12T07:25:22.802Z,-21310.15
2018-11-12T07:27:50.952Z,-21319.61
2018-11-12T07:30:27.317Z,-21319.75
2018-11-12T07:33:05.059Z,-21325.54
2018-11-12T07:35:33.690Z,-21323.14
2018-11-12T07:38:01.947Z,-21317.64
2018-11-12T07:40:30.287Z,-21318.35
2018-11-12T07:42:58.718Z,-21322.16
2018-11-12T07:45:28.271Z,-21318.77
2018-11-12T07:47:57.179Z,-21325.68
2018-11-12T07:50:26.931Z,-21316.79
2018-11-12T07:52:56.805Z,-21316.37
2018-11-12T07:55:26.341Z,-21323.85
2018-11-12T07:57:55.386Z,-21322.16
2018-11-12T08:00:26.996Z,-21328.08
2018-11-12T08:03:01.475Z,-21335.84
2018-11-12T08:05:29.728Z,-21331.32
2018-11-12T08:07:58.016Z,-21320.18
2018-11-12T08:10:26.276Z,-21332.45
2018-11-12T08:12:54.592Z,-21330.76
2018-11-12T08:15:22.893Z,-21326.95
2018-11-12T08:17:51.205Z,-21330.20
2018-11-12T08:20:21.681Z,-21337.39
2018-11-12T08:22:50.755Z,-21336.12
2018-11-12T08:25:19.102Z,-21343.73
2018-11-12T08:27:47.896Z,-21328.08
2018-11-12T08:30:20.516Z,-21331.89
2018-11-12T08:32:50.306Z,-21335.41
2018-11-12T08:35:18.721Z,-21335.41
2018-11-12T08:37:47.520Z,-21337.67
2018-11-12T08:40:17.081Z,-21337.81
2018-11-12T08:42:45.437Z,-21340.21
2018-11-12T08:45:14.171Z,-21338.52
2018-11-12T08:47:43.692Z,-21344.44
2018-11-12T08:50:14.840Z,-21344.86
2018-11-12T08:52:44.254Z,-21349.23
2018-11-12T08:55:14.356Z,-21343.45
2018-11-12T08:57:44.103Z,-21346.84
2018-11-12T09:00:12.876Z,-21351.49
2018-11-12T09:02:41.473Z,-21347.41
2018-11-12T09:05:11.345Z,-21347.83
2018-11-12T09:07:40.555Z,-21353.61
2018-11-12T09:10:12.699Z,-21354.45
2018-11-12T09:12:41.839Z,-21359.38
2018-11-12T09:15:10.899Z,-21357.27
2018-11-12T09:17:40.218Z,-21357.97
2018-11-12T09:20:09.981Z,-21360.36
2018-11-12T09:22:38.639Z,-21359.52
2018-11-12T09:25:09.376Z,-21354.30
2018-11-12T09:27:37.655Z,-21354.17
2018-11-12T09:30:08.975Z,-21356.70
2018-11-12T09:32:37.331Z,-21362.48
2018-11-12T09:35:06.437Z,-21359.38
2018-11-12T09:40:03.116Z,-21357.27
2018-11-12T09:42:31.437Z,-21356.42
2018-11-12T09:44:59.719Z,-21359.94
2018-11-12T09:47:28.110Z,-21363.04
2018-11-12T09:49:56.429Z,-21363.32
2018-11-12T09:52:24.743Z,-21362.76
2018-11-12T09:54:53.169Z,-21361.63
2018-11-12T09:57:21.588Z,-21363.32
2018-11-12T09:59:49.915Z,-21366.98
2018-11-12T10:02:19.108Z,-21368.68
2018-11-12T10:04:47.758Z,-21368.82
2018-11-12T10:07:16.386Z,-21370.50
2018-11-12T10:09:45.844Z,-21370.93
2018-11-12T10:12:14.881Z,-21371.63
2018-11-12T10:14:42.991Z,-21368.39
2018-11-12T10:17:10.778Z,-21371.35
2018-11-12T10:19:36.582Z,-21374.31
2018-11-12T10:22:04.932Z,-21376.85
2018-11-12T10:24:33.212Z,-21376.00
2018-11-12T10:27:01.534Z,-21378.25
2018-11-12T10:29:29.855Z,-21377.27
2018-11-12T10:31:58.172Z,-21382.47
2018-11-12T10:34:26.456Z,-21387.54
2018-11-12T10:36:54.784Z,-21380.50
2018-11-12T10:39:23.138Z,-21384.45
2018-11-12T10:41:51.483Z,-21385.85
2018-11-12T10:44:19.857Z,-21389.36
2018-11-12T10:46:48.204Z,-21387.68
2018-11-12T10:49:16.571Z,-21385.43
2018-11-12T10:51:44.987Z,-21388.66
2018-11-12T10:54:13.488Z,-21390.63
2018-11-12T10:56:41.801Z,-21390.91
2018-11-12T10:59:10.129Z,-21386.69
2018-11-12T11:01:43.607Z,-21388.95
2018-11-12T11:04:17.105Z,-21394.29
2018-11-12T11:06:45.440Z,-21386.83
2018-11-12T11:09:13.772Z,-21388.38
2018-11-12T11:11:42.056Z,-21386.83
2018-11-12T11:14:10.432Z,-21382.33
2018-11-12T11:16:38.720Z,-21382.90
2018-11-12T11:19:07.758Z,-21381.21
2018-11-12T11:21:36.059Z,-21384.86
2018-11-12T11:24:04.504Z,-21386.55
2018-11-12T11:26:32.822Z,-21380.93
2018-11-12T11:29:01.088Z,-21385.99
2018-11-12T11:31:29.469Z,-21392.18
2018-11-12T11:33:57.893Z,-21393.87
2018-11-12T11:36:26.381Z,-21387.54
2018-11-12T11:38:54.942Z,-21392.32
2018-11-12T11:41:23.280Z,-21394.01
2018-11-12T11:43:51.757Z,-21391.05
2018-11-12T11:46:20.565Z,-21388.80
2018-11-12T11:48:50.653Z,-21386.83
2018-11-12T11:51:18.955Z,-21389.51
2018-11-12T11:53:47.400Z,-21388.24
2018-11-12T11:56:15.805Z,-21379.52
2018-11-12T11:58:44.239Z,-21382.19
2018-11-12T12:01:12.600Z,-21383.18
2018-11-12T12:03:40.905Z,-21379.66
2018-11-12T12:06:09.324Z,-21382.75
2018-11-12T12:08:37.721Z,-21384.45
2018-11-12T12:11:06.156Z,-21382.90
2018-11-12T12:13:34.636Z,-21382.19
2018-11-12T12:16:03.316Z,-21383.32
2018-11-12T12:18:31.707Z,-21373.18
2018-11-12T12:21:00.084Z,-21382.33
2018-11-12T12:23:28.415Z,-21380.50
2018-11-12T12:25:56.868Z,-21380.64
2018-11-12T12:28:25.267Z,-21372.48
2018-11-12T12:30:53.539Z,-21379.80
2018-11-12T12:33:21.922Z,-21388.52
2018-11-12T12:35:50.287Z,-21382.05
2018-11-12T12:38:18.628Z,-21384.16
2018-11-12T12:40:47.051Z,-21381.07
2018-11-12T12:43:15.448Z,-21378.67
2018-11-12T12:45:44.183Z,-21375.58
2018-11-12T12:48:12.312Z,-21373.75
2018-11-12T12:50:40.744Z,-21381.07
2018-11-12T12:53:09.086Z,-21385.99
2018-11-12T12:55:37.675Z,-21383.04
2018-11-12T12:58:06.106Z,-21383.60
2018-11-12T13:00:34.596Z,-21410.88
2018-11-12T13:03:03.733Z,-21401.89
2018-11-12T13:05:32.022Z,-21416.36
2018-11-12T13:08:00.354Z,-21400.48
2018-11-12T13:10:28.846Z,-21397.53
2018-11-12T13:12:57.203Z,-21404.13
2018-11-12T13:15:25.493Z,-21454.97
2018-11-12T13:17:53.872Z,-21499.38
2018-11-12T13:20:23.664Z,-21529.72
2018-11-12T13:22:51.967Z,-21468.57
2018-11-12T13:25:20.267Z,-21486.49
2018-11-12T13:27:49.205Z,-21463.80
2018-11-12T13:30:19.777Z,-21475.57
2018-11-12T13:32:48.331Z,-21527.76
2018-11-12T13:35:19.757Z,-21501.61
2018-11-12T13:37:48.104Z,-21470.53
2018-11-12T13:40:18.946Z,-21496.44
2018-11-12T13:42:48.829Z,-21542.98
2018-11-12T13:45:17.241Z,-21502.87
2018-11-12T13:47:46.126Z,-21521.19
2018-11-12T13:50:17.806Z,-21519.65
2018-11-12T13:52:49.832Z,-21539.91
2018-11-12T13:55:19.232Z,-21510.15
2018-11-12T13:57:47.643Z,-21501.61
2018-11-12T14:00:17.358Z,-21479.35
2018-11-12T14:02:46.699Z,-21467.30
2018-11-12T14:05:16.453Z,-21463.23
2018-11-12T14:07:45.349Z,-21463.10
2018-11-12T14:10:14.896Z,-21464.50
2018-11-12T14:12:43.813Z,-21459.31
2018-11-12T14:15:14.850Z,-21457.63
2018-11-12T14:17:43.431Z,-21452.44
2018-11-12T14:20:11.882Z,-21452.72
2018-11-12T14:22:40.378Z,-21456.51
2018-11-12T14:25:10.105Z,-21453.70
2018-11-12T14:27:38.549Z,-21457.07
2018-11-12T14:30:08.116Z,-21451.04
2018-11-12T14:32:36.429Z,-21446.70
2018-11-12T14:35:06.126Z,-21446.27
2018-11-12T14:37:34.826Z,-21447.11
2018-11-12T14:40:03.201Z,-21438.97
2018-11-12T14:42:31.596Z,-21442.76
2018-11-12T14:44:59.967Z,-21442.90
2018-11-12T14:47:28.333Z,-21437.85
2018-11-12T14:49:56.715Z,-21443.18
2018-11-12T14:52:25.099Z,-21444.73
2018-11-12T14:54:53.473Z,-21443.60
2018-11-12T14:57:21.744Z,-21442.20
2018-11-12T14:59:50.015Z,-21443.74
2018-11-12T15:02:18.352Z,-21442.20
2018-11-12T15:04:46.756Z,-21441.22
2018-11-12T15:07:15.231Z,-21444.87
2018-11-12T15:09:43.688Z,-21442.90
2018-11-12T15:12:12.020Z,-21436.86
2018-11-12T15:14:40.418Z,-21434.62
2018-11-12T15:17:08.717Z,-21437.71
2018-11-12T15:19:37.229Z,-21435.18
2018-11-12T15:22:05.784Z,-21439.25
2018-11-12T15:24:34.644Z,-21433.78
2018-11-12T15:27:03.399Z,-21438.41
2018-11-12T15:29:31.889Z,-21433.78
2018-11-12T15:32:00.196Z,-21431.11
2018-11-12T15:34:28.623Z,-21430.97
2018-11-12T15:36:57.144Z,-21423.39
2018-11-12T15:39:25.515Z,-21426.90
2018-11-12T15:41:53.900Z,-21427.32
2018-11-12T15:44:22.262Z,-21423.81
2018-11-12T15:46:50.737Z,-21429.01
2018-11-12T15:49:19.234Z,-21422.97
2018-11-12T15:51:47.627Z,-21424.79
2018-11-12T15:54:16.295Z,-21424.09
2018-11-12T15:56:44.681Z,-21421.14
2018-11-12T15:59:13.045Z,-21420.15
2018-11-12T16:01:41.505Z,-21421.70
2018-11-12T16:04:09.920Z,-21422.12
2018-11-12T16:06:38.395Z,-21421.56
2018-11-12T16:09:10.395Z,-21419.03
2018-11-12T16:11:38.776Z,-21422.41
2018-11-12T16:14:07.548Z,-21420.57
2018-11-12T16:16:36.109Z,-21420.71
2018-11-12T16:19:04.504Z,-21418.47
2018-11-12T16:21:32.920Z,-21419.31
2018-11-12T16:24:01.247Z,-21427.46
2018-11-12T16:26:29.668Z,-21417.63
2018-11-12T16:28:58.245Z,-21415.80
2018-11-12T16:31:36.977Z,-21416.50
2018-11-12T16:34:05.524Z,-21417.35
2018-11-12T16:36:34.001Z,-21419.59
2018-11-12T16:39:02.417Z,-21414.96
2018-11-12T16:41:30.816Z,-21417.06
2018-11-12T16:43:59.672Z,-21413.55
2018-11-12T16:46:28.108Z,-21411.87
2018-11-12T16:48:56.757Z,-21415.66
2018-11-12T16:51:25.170Z,-21414.25
2018-11-12T16:53:53.631Z,-21412.99
2018-11-12T16:56:21.975Z,-21414.39
2018-11-12T16:58:50.485Z,-21409.76
2018-11-12T17:01:18.824Z,-21383.60
2018-11-12T17:03:47.309Z,-21378.82
2018-11-12T17:06:15.796Z,-21383.18
2018-11-12T17:08:44.161Z,-21384.16
2018-11-12T17:11:12.593Z,-21381.91
2018-11-12T17:13:40.892Z,-21379.80
2018-11-12T17:16:09.361Z,-21377.55
2018-11-12T17:18:37.785Z,-21377.97
2018-11-12T17:21:06.274Z,-21376.70
2018-11-12T17:23:34.639Z,-21382.05
2018-11-12T17:26:02.948Z,-21377.13
2018-11-12T17:28:31.291Z,-21384.02
2018-11-12T17:30:59.745Z,-21380.08
2018-11-12T17:33:27.971Z,-21383.18
2018-11-12T17:35:56.333Z,-21383.88
2018-11-12T17:38:24.787Z,-21383.88
2018-11-12T17:40:53.176Z,-21369.24
2018-11-12T17:43:21.551Z,-21385.14
2018-11-12T17:45:49.861Z,-21384.30
2018-11-12T17:48:18.264Z,-21384.45
2018-11-12T17:50:46.598Z,-21380.36
2018-11-12T17:53:14.947Z,-21387.82
2018-11-12T17:55:43.306Z,-21386.69
2018-11-12T17:58:12.458Z,-21384.72
2018-11-12T18:00:40.921Z,-21378.82
2018-11-12T18:03:09.385Z,-21377.41
2018-11-12T18:05:37.745Z,-21377.83
2018-11-12T18:08:06.264Z,-21369.38
2018-11-12T18:10:34.587Z,-21365.43
2018-11-12T18:13:03.057Z,-21374.59
2018-11-12T18:15:31.426Z,-21369.24
2018-11-12T18:17:59.815Z,-21369.24
2018-11-12T18:20:28.616Z,-21374.45
2018-11-12T18:22:57.639Z,-21375.44
2018-11-12T18:25:26.070Z,-21374.17
2018-11-12T18:27:55.058Z,-21372.06
2018-11-12T18:30:25.090Z,-21366.98
2018-11-12T18:32:54.557Z,-21373.89
2018-11-12T18:35:22.932Z,-21366.00
2018-11-12T18:37:51.286Z,-21368.82
2018-11-12T18:40:21.047Z,-21377.97
2018-11-12T18:42:49.734Z,-21378.25
2018-11-12T18:45:19.583Z,-21380.22
2018-11-12T18:47:47.972Z,-21378.53
2018-11-12T18:50:19.594Z,-21382.61
2018-11-12T18:52:48.070Z,-21372.62
2018-11-12T18:55:16.440Z,-21369.66
2018-11-12T18:57:45.536Z,-21366.42
2018-11-12T19:00:15.533Z,-21368.53
2018-11-12T19:02:44.009Z,-21374.17
2018-11-12T19:05:14.314Z,-21373.75
2018-11-12T19:07:43.365Z,-21367.83
2018-11-12T19:10:14.606Z,-21371.49
2018-11-12T19:12:43.671Z,-21364.59
2018-11-12T19:15:14.451Z,-21375.44
2018-11-12T19:17:43.797Z,-21367.83
2018-11-12T19:20:12.216Z,-21372.90
2018-11-12T19:22:40.603Z,-21367.27
2018-11-12T19:25:09.971Z,-21368.68
2018-11-12T19:27:38.369Z,-21375.58
2018-11-12T19:30:10.299Z,-21368.82
2018-11-12T19:32:38.772Z,-21370.22
2018-11-12T19:35:08.565Z,-21366.84
2018-11-12T19:37:36.963Z,-21371.07
2018-11-12T19:40:06.589Z,-21367.13
2018-11-12T19:42:34.955Z,-21374.31
2018-11-12T19:45:03.559Z,-21367.97
2018-11-12T19:47:31.834Z,-21364.59
2018-11-12T19:50:00.175Z,-21370.50
2018-11-12T19:52:28.648Z,-21368.39
2018-11-12T19:54:57.035Z,-21364.02
2018-11-12T19:57:25.791Z,-21366.84
2018-11-12T19:59:54.158Z,-21367.69
2018-11-12T20:02:22.550Z,-21363.32
2018-11-12T20:04:50.936Z,-21365.43
2018-11-12T20:07:19.515Z,-21369.52
2018-11-12T20:09:48.114Z,-21365.86
2018-11-12T20:12:16.448Z,-21366.98
2018-11-12T20:14:44.773Z,-21373.46
2018-11-12T20:17:13.118Z,-21366.70
2018-11-12T20:19:41.480Z,-21361.63
2018-11-12T20:22:09.847Z,-21363.18
2018-11-12T20:24:38.211Z,-21366.56
2018-11-12T20:27:06.612Z,-21367.55
2018-11-12T20:29:35.023Z,-21365.01
2018-11-12T20:32:03.423Z,-21365.86
2018-11-12T20:34:31.823Z,-21360.93
2018-11-12T20:37:00.256Z,-21360.09
2018-11-12T20:39:28.757Z,-21363.04
2018-11-12T20:41:57.135Z,-21360.51
2018-11-12T20:44:25.690Z,-21361.91
2018-11-12T20:46:54.090Z,-21356.84
2018-11-12T20:49:22.453Z,-21359.52
2018-11-12T20:51:50.800Z,-21360.23
2018-11-12T20:54:19.228Z,-21353.18
2018-11-12T20:56:47.543Z,-21364.73
2018-11-12T20:59:15.879Z,-21367.41
2018-11-12T21:01:44.344Z,-21366.14
2018-11-12T21:04:12.749Z,-21361.35
2018-11-12T21:06:41.156Z,-21361.07
2018-11-12T21:09:12.496Z,-21359.94
2018-11-12T21:11:40.958Z,-21362.20
2018-11-12T21:14:09.386Z,-21366.70
2018-11-12T21:16:38.408Z,-21360.09
2018-11-12T21:19:07.626Z,-21355.71
2018-11-12T21:21:35.915Z,-21358.68
2018-11-12T21:24:04.265Z,-21368.82
2018-11-12T21:26:32.710Z,-21368.53
2018-11-12T21:29:01.098Z,-21367.97
2018-11-12T21:31:29.452Z,-21359.24
2018-11-12T21:33:58.965Z,-21367.97
2018-11-12T21:36:27.384Z,-21366.98
2018-11-12T21:38:55.955Z,-21362.48
2018-11-12T21:41:24.311Z,-21364.45
2018-11-12T21:43:52.924Z,-21360.23
2018-11-12T21:46:21.120Z,-21360.51
2018-11-12T21:48:49.525Z,-21363.89
2018-11-12T21:51:17.830Z,-21373.33
2018-11-12T21:53:46.218Z,-21360.36
2018-11-12T21:56:14.577Z,-21354.03
2018-11-12T21:58:42.972Z,-21361.63
2018-11-12T22:01:11.283Z,-21357.55
2018-11-12T22:03:39.612Z,-21362.06
2018-11-12T22:06:07.912Z,-21356.00
2018-11-12T22:08:36.329Z,-21362.48
2018-11-12T22:11:04.650Z,-21358.54
2018-11-12T22:13:32.990Z,-21354.59
2018-11-12T22:16:01.285Z,-21357.55
2018-11-12T22:18:29.730Z,-21363.04
2018-11-12T22:20:58.078Z,-21351.77
2018-11-12T22:23:26.421Z,-21356.84
2018-11-12T22:25:54.748Z,-21354.03
2018-11-12T22:28:23.196Z,-21361.91
2018-11-12T22:30:51.420Z,-21358.95
2018-11-12T22:33:19.780Z,-21355.29
2018-11-12T22:35:48.097Z,-21359.94
2018-11-12T22:38:16.407Z,-21360.23
2018-11-12T22:40:45.282Z,-21352.20
2018-11-12T22:43:13.645Z,-21357.27
2018-11-12T22:45:42.036Z,-21361.91
2018-11-12T22:48:10.335Z,-21351.49
2018-11-12T22:50:38.708Z,-21354.87
2018-11-12T22:53:07.082Z,-21349.23
2018-11-12T22:55:35.552Z,-21330.06
2018-11-12T22:58:03.961Z,-21339.36
2018-11-12T23:00:38.284Z,-21351.21
2018-11-12T23:03:07.316Z,-21346.42
2018-11-12T23:05:35.718Z,-21342.46
2018-11-12T23:08:04.123Z,-21343.73
2018-11-12T23:10:32.524Z,-20917.83
2018-11-12T23:13:00.853Z,-21340.77
2018-11-12T23:15:29.185Z,-21335.55
2018-11-12T23:17:57.536Z,-21340.63
2018-11-12T23:20:27.525Z,-21332.60
2018-11-12T23:22:55.890Z,-18376.00
2018-11-12T23:25:24.408Z,-21371.35
2018-11-12T23:27:53.358Z,-21452.30
2018-11-12T23:30:22.880Z,-21341.48
2018-11-12T23:32:51.227Z,-21351.07
2018-11-12T23:35:22.120Z,-21355.15
2018-11-12T23:37:50.807Z,-5983.59
2018-11-12T23:40:19.258Z,45520.09
2018-11-12T23:42:47.962Z,49156.16
2018-11-12T23:45:16.255Z,34242.52
2018-11-12T23:47:44.621Z,35526.86
2018-11-12T23:50:16.198Z,29704.96
2018-11-12T23:52:45.316Z,30438.57
2018-11-12T23:55:14.092Z,26933.56
2018-11-12T23:57:42.763Z,24183.08
